sensor_id;sensor_type;location;lat;lon;timestamp;pressure;altitude;pressure_sealevel;temperature;humidity
54994;BME280;40891;47.242;8.648;2022-07-15T00:01:10;96437.41;;;25.55;49.16
54994;BME280;40891;47.242;8.648;2022-07-15T00:03:35;96428.31;;;25.57;48.77
54994;BME280;40891;47.242;8.648;2022-07-15T00:06:01;96454.06;;;25.51;49.46
54994;BME280;40891;47.242;8.648;2022-07-15T00:08:26;96441.81;;;25.43;49.72
54994;BME280;40891;47.242;8.648;2022-07-15T00:10:53;96449.91;;;25.39;50.11
54994;BME280;40891;47.242;8.648;2022-07-15T00:13:19;96443.81;;;25.22;50.21
54994;BME280;40891;47.242;8.648;2022-07-15T00:15:44;96445.31;;;25.23;49.81
54994;BME280;40891;47.242;8.648;2022-07-15T00:18:09;96458.03;;;25.22;49.86
54994;BME280;40891;47.242;8.648;2022-07-15T00:20:35;96445.22;;;25.16;49.34
54994;BME280;40891;47.242;8.648;2022-07-15T00:23:02;96462.75;;;25.20;49.43
54994;BME280;40891;47.242;8.648;2022-07-15T00:25:28;96457.59;;;25.18;49.79
54994;BME280;40891;47.242;8.648;2022-07-15T00:27:59;96457.59;;;25.18;50.26
54994;BME280;40891;47.242;8.648;2022-07-15T00:30:43;96460.56;;;24.99;48.92
54994;BME280;40891;47.242;8.648;2022-07-15T00:33:09;96470.44;;;24.98;49.00
54994;BME280;40891;47.242;8.648;2022-07-15T00:35:36;96451.47;;;25.01;49.40
54994;BME280;40891;47.242;8.648;2022-07-15T00:38:03;96455.09;;;25.01;50.13
54994;BME280;40891;47.242;8.648;2022-07-15T00:40:29;96457.84;;;24.81;48.51
54994;BME280;40891;47.242;8.648;2022-07-15T00:42:55;96462.97;;;24.82;49.05
54994;BME280;40891;47.242;8.648;2022-07-15T00:45:22;96455.69;;;24.55;48.35
54994;BME280;40891;47.242;8.648;2022-07-15T00:47:49;96464.00;;;24.53;48.06
54994;BME280;40891;47.242;8.648;2022-07-15T00:50:16;96472.22;;;24.57;47.67
54994;BME280;40891;47.242;8.648;2022-07-15T00:52:45;96458.47;;;24.61;47.77
54994;BME280;40891;47.242;8.648;2022-07-15T00:55:11;96461.69;;;24.52;47.58
54994;BME280;40891;47.242;8.648;2022-07-15T00:57:40;96464.53;;;24.52;48.44
54994;BME280;40891;47.242;8.648;2022-07-15T01:00:06;96474.63;;;24.53;47.26
54994;BME280;40891;47.242;8.648;2022-07-15T01:02:34;96474.19;;;24.49;47.97
54994;BME280;40891;47.242;8.648;2022-07-15T01:05:00;96471.34;;;24.49;48.05
54994;BME280;40891;47.242;8.648;2022-07-15T01:07:28;96469.66;;;24.40;48.65
54994;BME280;40891;47.242;8.648;2022-07-15T01:09:53;96460.13;;;24.24;49.02
54994;BME280;40891;47.242;8.648;2022-07-15T01:12:18;96472.53;;;24.08;48.84
54994;BME280;40891;47.242;8.648;2022-07-15T01:14:44;96465.06;;;24.05;49.30
54994;BME280;40891;47.242;8.648;2022-07-15T01:17:10;96469.78;;;23.84;50.07
54994;BME280;40891;47.242;8.648;2022-07-15T01:19:36;96469.16;;;23.91;50.02
54994;BME280;40891;47.242;8.648;2022-07-15T01:22:02;96470.22;;;23.88;50.09
54994;BME280;40891;47.242;8.648;2022-07-15T01:24:27;96473.84;;;23.89;50.05
54994;BME280;40891;47.242;8.648;2022-07-15T01:26:52;96469.16;;;23.91;49.56
54994;BME280;40891;47.242;8.648;2022-07-15T01:29:17;96468.38;;;23.91;50.04
54994;BME280;40891;47.242;8.648;2022-07-15T01:31:43;96469.09;;;23.78;49.50
54994;BME280;40891;47.242;8.648;2022-07-15T01:34:09;96473.91;;;23.83;49.44
54994;BME280;40891;47.242;8.648;2022-07-15T01:36:34;96476.31;;;23.79;49.73
54994;BME280;40891;47.242;8.648;2022-07-15T01:39:00;96473.69;;;23.81;49.97
54994;BME280;40891;47.242;8.648;2022-07-15T01:41:25;96473.88;;;23.70;50.37
54994;BME280;40891;47.242;8.648;2022-07-15T01:43:50;96471.44;;;23.61;50.59
54994;BME280;40891;47.242;8.648;2022-07-15T01:46:16;96472.94;;;23.62;50.79
54994;BME280;40891;47.242;8.648;2022-07-15T01:48:41;96471.50;;;23.55;51.08
54994;BME280;40891;47.242;8.648;2022-07-15T01:51:42;96471.56;;;23.50;51.42
54994;BME280;40891;47.242;8.648;2022-07-15T01:54:07;96472.09;;;23.48;51.56
54994;BME280;40891;47.242;8.648;2022-07-15T01:56:32;96470.09;;;23.43;51.53
54994;BME280;40891;47.242;8.648;2022-07-15T01:58:58;96473.00;;;23.38;51.56
54994;BME280;40891;47.242;8.648;2022-07-15T02:01:23;96473.31;;;23.34;52.15
54994;BME280;40891;47.242;8.648;2022-07-15T02:03:48;96465.59;;;23.35;52.05
54994;BME280;40891;47.242;8.648;2022-07-15T02:06:14;96469.47;;;23.32;51.74
54994;BME280;40891;47.242;8.648;2022-07-15T02:08:39;96473.06;;;23.32;51.84
54994;BME280;40891;47.242;8.648;2022-07-15T02:11:05;96479.66;;;23.22;51.92
54994;BME280;40891;47.242;8.648;2022-07-15T02:13:31;96479.78;;;23.11;52.34
54994;BME280;40891;47.242;8.648;2022-07-15T02:15:56;96478.38;;;22.98;52.81
54994;BME280;40891;47.242;8.648;2022-07-15T02:18:22;96476.38;;;22.93;53.02
54994;BME280;40891;47.242;8.648;2022-07-15T02:20:47;96470.06;;;22.82;53.09
54994;BME280;40891;47.242;8.648;2022-07-15T02:23:12;96473.22;;;22.78;53.44
54994;BME280;40891;47.242;8.648;2022-07-15T02:25:38;96483.47;;;22.81;53.74
54994;BME280;40891;47.242;8.648;2022-07-15T02:28:05;96475.47;;;22.85;52.95
54994;BME280;40891;47.242;8.648;2022-07-15T02:30:33;96486.16;;;22.74;53.28
54994;BME280;40891;47.242;8.648;2022-07-15T02:32:59;96467.59;;;22.73;52.68
54994;BME280;40891;47.242;8.648;2022-07-15T02:35:25;96471.22;;;22.73;52.18
54994;BME280;40891;47.242;8.648;2022-07-15T02:37:51;96477.66;;;22.74;52.43
54994;BME280;40891;47.242;8.648;2022-07-15T02:40:16;96479.00;;;22.67;52.05
54994;BME280;40891;47.242;8.648;2022-07-15T02:42:53;96477.97;;;22.65;52.51
54994;BME280;40891;47.242;8.648;2022-07-15T02:45:21;96482.06;;;22.69;52.43
54994;BME280;40891;47.242;8.648;2022-07-15T02:47:47;96483.97;;;22.61;52.53
54994;BME280;40891;47.242;8.648;2022-07-15T02:50:13;96474.78;;;22.50;52.38
54994;BME280;40891;47.242;8.648;2022-07-15T02:52:39;96478.69;;;22.41;52.55
54994;BME280;40891;47.242;8.648;2022-07-15T02:55:05;96478.78;;;22.35;52.88
54994;BME280;40891;47.242;8.648;2022-07-15T02:57:31;96478.69;;;22.41;52.45
54994;BME280;40891;47.242;8.648;2022-07-15T02:59:56;96477.09;;;22.46;52.73
54994;BME280;40891;47.242;8.648;2022-07-15T03:02:22;96475.28;;;22.48;52.09
54994;BME280;40891;47.242;8.648;2022-07-15T03:04:47;96478.06;;;22.54;52.46
54994;BME280;40891;47.242;8.648;2022-07-15T03:07:13;96475.13;;;22.41;52.83
54994;BME280;40891;47.242;8.648;2022-07-15T03:09:39;96482.13;;;22.34;52.21
54994;BME280;40891;47.242;8.648;2022-07-15T03:12:04;96481.50;;;22.17;52.56
54994;BME280;40891;47.242;8.648;2022-07-15T03:14:30;96497.31;;;22.07;52.93
54994;BME280;40891;47.242;8.648;2022-07-15T03:16:55;96499.13;;;22.04;52.81
54994;BME280;40891;47.242;8.648;2022-07-15T03:19:21;96490.72;;;21.93;52.92
54994;BME280;40891;47.242;8.648;2022-07-15T03:21:47;96487.59;;;21.97;53.16
54994;BME280;40891;47.242;8.648;2022-07-15T03:24:16;96494.50;;;22.01;53.52
54994;BME280;40891;47.242;8.648;2022-07-15T03:26:42;96492.78;;;21.93;53.65
54994;BME280;40891;47.242;8.648;2022-07-15T03:29:08;96490.97;;;21.95;53.23
54994;BME280;40891;47.242;8.648;2022-07-15T03:31:34;96491.75;;;21.90;53.83
54994;BME280;40891;47.242;8.648;2022-07-15T03:33:59;96497.69;;;21.87;53.74
54994;BME280;40891;47.242;8.648;2022-07-15T03:36:25;96495.13;;;21.83;53.96
54994;BME280;40891;47.242;8.648;2022-07-15T03:38:50;96506.19;;;21.87;53.86
54994;BME280;40891;47.242;8.648;2022-07-15T03:41:20;96499.81;;;21.75;54.58
54994;BME280;40891;47.242;8.648;2022-07-15T03:43:45;96505.53;;;21.64;54.82
54994;BME280;40891;47.242;8.648;2022-07-15T03:46:11;96501.72;;;21.56;55.59
54994;BME280;40891;47.242;8.648;2022-07-15T03:48:37;96499.41;;;21.54;55.54
54994;BME280;40891;47.242;8.648;2022-07-15T03:51:02;96499.34;;;21.65;54.73
54994;BME280;40891;47.242;8.648;2022-07-15T03:53:27;96500.38;;;21.68;53.96
54994;BME280;40891;47.242;8.648;2022-07-15T03:55:53;96505.53;;;21.69;54.55
54994;BME280;40891;47.242;8.648;2022-07-15T03:58:18;96502.13;;;21.77;55.51
54994;BME280;40891;47.242;8.648;2022-07-15T04:00:44;96500.81;;;21.78;54.70
54994;BME280;40891;47.242;8.648;2022-07-15T04:03:09;96506.72;;;21.80;54.43
54994;BME280;40891;47.242;8.648;2022-07-15T04:05:34;96500.34;;;21.74;54.68
54994;BME280;40891;47.242;8.648;2022-07-15T04:08:00;96510.91;;;21.67;55.30
54994;BME280;40891;47.242;8.648;2022-07-15T04:10:25;96506.31;;;21.64;54.79
54994;BME280;40891;47.242;8.648;2022-07-15T04:12:51;96504.50;;;21.67;55.15
54994;BME280;40891;47.242;8.648;2022-07-15T04:15:16;96511.69;;;21.68;54.66
54994;BME280;40891;47.242;8.648;2022-07-15T04:17:41;96510.91;;;21.67;54.47
54994;BME280;40891;47.242;8.648;2022-07-15T04:20:08;96514.75;;;21.70;54.43
54994;BME280;40891;47.242;8.648;2022-07-15T04:22:43;96517.28;;;21.85;53.79
54994;BME280;40891;47.242;8.648;2022-07-15T04:25:10;96517.28;;;21.79;54.41
54994;BME280;40891;47.242;8.648;2022-07-15T04:27:36;96521.94;;;21.77;54.35
54994;BME280;40891;47.242;8.648;2022-07-15T04:30:03;96517.28;;;21.85;54.47
54994;BME280;40891;47.242;8.648;2022-07-15T04:32:30;96520.09;;;21.85;53.82
54994;BME280;40891;47.242;8.648;2022-07-15T04:34:55;96521.09;;;21.93;53.68
54994;BME280;40891;47.242;8.648;2022-07-15T04:37:21;96524.72;;;21.88;54.05
54994;BME280;40891;47.242;8.648;2022-07-15T04:39:47;96517.75;;;21.89;54.83
54994;BME280;40891;47.242;8.648;2022-07-15T04:42:12;96518.97;;;21.99;54.45
54994;BME280;40891;47.242;8.648;2022-07-15T04:44:37;96520.31;;;21.92;53.84
54994;BME280;40891;47.242;8.648;2022-07-15T04:47:03;96527.19;;;22.02;54.08
54994;BME280;40891;47.242;8.648;2022-07-15T04:49:29;96526.44;;;22.02;54.14
54994;BME280;40891;47.242;8.648;2022-07-15T04:52:13;96524.56;;;22.10;53.82
54994;BME280;40891;47.242;8.648;2022-07-15T04:54:38;96518.41;;;22.06;52.64
54994;BME280;40891;47.242;8.648;2022-07-15T04:57:03;96520.34;;;22.22;53.44
54994;BME280;40891;47.242;8.648;2022-07-15T04:59:29;96524.25;;;22.19;52.54
54994;BME280;40891;47.242;8.648;2022-07-15T05:01:55;96521.78;;;22.34;52.03
54994;BME280;40891;47.242;8.648;2022-07-15T05:04:20;96519.38;;;22.44;52.03
54994;BME280;40891;47.242;8.648;2022-07-15T05:06:45;96513.81;;;22.32;51.94
54994;BME280;40891;47.242;8.648;2022-07-15T05:09:11;96518.47;;;22.30;52.10
54994;BME280;40891;47.242;8.648;2022-07-15T05:11:36;96522.22;;;22.14;52.53
54994;BME280;40891;47.242;8.648;2022-07-15T05:14:01;96527.56;;;22.23;52.28
54994;BME280;40891;47.242;8.648;2022-07-15T05:16:26;96519.25;;;22.30;52.82
54994;BME280;40891;47.242;8.648;2022-07-15T05:18:52;96517.47;;;22.27;52.43
54994;BME280;40891;47.242;8.648;2022-07-15T05:21:17;96512.47;;;22.39;52.63
54994;BME280;40891;47.242;8.648;2022-07-15T05:23:43;96519.94;;;22.42;52.20
54994;BME280;40891;47.242;8.648;2022-07-15T05:26:08;96528.13;;;22.46;52.66
54994;BME280;40891;47.242;8.648;2022-07-15T05:28:36;96526.56;;;22.50;52.35
54994;BME280;40891;47.242;8.648;2022-07-15T05:31:02;96537.56;;;22.59;53.21
54994;BME280;40891;47.242;8.648;2022-07-15T05:33:27;96523.53;;;22.72;53.37
54994;BME280;40891;47.242;8.648;2022-07-15T05:35:52;96530.34;;;22.88;53.80
54994;BME280;40891;47.242;8.648;2022-07-15T05:38:18;96536.19;;;22.95;52.31
54994;BME280;40891;47.242;8.648;2022-07-15T05:40:43;96535.16;;;22.93;53.99
54994;BME280;40891;47.242;8.648;2022-07-15T05:43:08;96531.81;;;22.94;54.96
54994;BME280;40891;47.242;8.648;2022-07-15T05:45:34;96539.00;;;22.95;53.60
54994;BME280;40891;47.242;8.648;2022-07-15T05:47:59;96533.69;;;22.86;52.93
54994;BME280;40891;47.242;8.648;2022-07-15T05:50:24;96539.56;;;22.94;53.59
54994;BME280;40891;47.242;8.648;2022-07-15T05:52:50;96540.44;;;22.83;54.22
54994;BME280;40891;47.242;8.648;2022-07-15T05:55:15;96543.34;;;22.78;53.63
54994;BME280;40891;47.242;8.648;2022-07-15T05:57:41;96543.19;;;22.65;52.93
54994;BME280;40891;47.242;8.648;2022-07-15T06:00:07;96547.41;;;22.82;53.25
54994;BME280;40891;47.242;8.648;2022-07-15T06:02:34;96552.63;;;22.78;51.59
54994;BME280;40891;47.242;8.648;2022-07-15T06:04:59;96544.69;;;22.71;53.46
54994;BME280;40891;47.242;8.648;2022-07-15T06:07:25;96541.63;;;22.93;52.12
54994;BME280;40891;47.242;8.648;2022-07-15T06:09:50;96540.66;;;23.10;51.89
54994;BME280;40891;47.242;8.648;2022-07-15T06:12:16;96548.75;;;23.00;52.88
54994;BME280;40891;47.242;8.648;2022-07-15T06:14:42;96557.81;;;22.98;52.30
54994;BME280;40891;47.242;8.648;2022-07-15T06:17:07;96548.69;;;23.30;51.69
54994;BME280;40891;47.242;8.648;2022-07-15T06:19:32;96546.09;;;23.32;51.34
54994;BME280;40891;47.242;8.648;2022-07-15T06:21:58;96546.88;;;23.32;51.92
54994;BME280;40891;47.242;8.648;2022-07-15T06:24:24;96544.91;;;23.46;52.46
54994;BME280;40891;47.242;8.648;2022-07-15T06:26:50;96551.19;;;23.39;51.80
54994;BME280;40891;47.242;8.648;2022-07-15T06:29:16;96549.94;;;23.58;51.41
54994;BME280;40891;47.242;8.648;2022-07-15T06:31:41;96557.91;;;23.60;50.38
54994;BME280;40891;47.242;8.648;2022-07-15T06:34:07;96546.16;;;23.69;49.28
54994;BME280;40891;47.242;8.648;2022-07-15T06:36:32;96548.91;;;23.56;50.20
54994;BME280;40891;47.242;8.648;2022-07-15T06:38:58;96551.38;;;23.65;50.73
54994;BME280;40891;47.242;8.648;2022-07-15T06:41:23;96542.63;;;23.63;49.80
54994;BME280;40891;47.242;8.648;2022-07-15T06:43:49;96539.78;;;23.82;49.93
54994;BME280;40891;47.242;8.648;2022-07-15T06:46:14;96549.38;;;23.97;49.13
54994;BME280;40891;47.242;8.648;2022-07-15T06:48:40;96547.78;;;23.83;49.56
54994;BME280;40891;47.242;8.648;2022-07-15T06:51:07;96548.47;;;23.52;49.44
54994;BME280;40891;47.242;8.648;2022-07-15T06:53:33;96553.19;;;23.20;49.83
54994;BME280;40891;47.242;8.648;2022-07-15T06:55:58;96556.22;;;23.51;50.57
54994;BME280;40891;47.242;8.648;2022-07-15T06:58:23;96553.28;;;23.57;49.90
54994;BME280;40891;47.242;8.648;2022-07-15T07:00:49;96551.06;;;23.68;49.26
54994;BME280;40891;47.242;8.648;2022-07-15T07:03:14;96544.69;;;23.81;49.47
54994;BME280;40891;47.242;8.648;2022-07-15T07:05:40;96550.09;;;23.85;49.71
54994;BME280;40891;47.242;8.648;2022-07-15T07:08:05;96550.91;;;23.98;49.89
54994;BME280;40891;47.242;8.648;2022-07-15T07:10:31;96551.00;;;23.93;47.31
54994;BME280;40891;47.242;8.648;2022-07-15T07:12:56;96547.69;;;23.89;48.36
54994;BME280;40891;47.242;8.648;2022-07-15T07:15:22;96554.91;;;23.71;48.82
54994;BME280;40891;47.242;8.648;2022-07-15T07:17:50;96552.59;;;23.69;47.70
54994;BME280;40891;47.242;8.648;2022-07-15T07:20:15;96545.84;;;23.91;48.04
54994;BME280;40891;47.242;8.648;2022-07-15T07:22:41;96551.56;;;24.10;49.50
54994;BME280;40891;47.242;8.648;2022-07-15T07:25:07;96547.81;;;24.33;48.34
54994;BME280;40891;47.242;8.648;2022-07-15T07:27:32;96552.09;;;24.40;48.18
54994;BME280;40891;47.242;8.648;2022-07-15T07:29:58;96546.25;;;24.51;48.68
54994;BME280;40891;47.242;8.648;2022-07-15T07:32:23;96547.91;;;24.60;47.20
54994;BME280;40891;47.242;8.648;2022-07-15T07:34:48;96556.84;;;24.82;46.21
54994;BME280;40891;47.242;8.648;2022-07-15T07:37:14;96550.06;;;24.85;47.39
54994;BME280;40891;47.242;8.648;2022-07-15T07:39:39;96549.69;;;25.08;46.16
54994;BME280;40891;47.242;8.648;2022-07-15T07:42:05;96555.50;;;25.15;46.00
54994;BME280;40891;47.242;8.648;2022-07-15T07:44:31;96557.22;;;25.18;44.78
54994;BME280;40891;47.242;8.648;2022-07-15T07:46:56;96558.56;;;24.72;46.39
54994;BME280;40891;47.242;8.648;2022-07-15T07:49:22;96549.91;;;24.65;46.84
54994;BME280;40891;47.242;8.648;2022-07-15T07:51:47;96551.41;;;24.84;47.58
54994;BME280;40891;47.242;8.648;2022-07-15T07:54:12;96553.81;;;25.07;48.29
54994;BME280;40891;47.242;8.648;2022-07-15T07:56:38;96542.88;;;25.24;45.55
54994;BME280;40891;47.242;8.648;2022-07-15T07:59:03;96543.13;;;25.39;46.05
54994;BME280;40891;47.242;8.648;2022-07-15T08:01:29;96539.50;;;25.51;45.62
54994;BME280;40891;47.242;8.648;2022-07-15T08:03:54;96540.81;;;25.63;45.61
54994;BME280;40891;47.242;8.648;2022-07-15T08:06:19;96545.16;;;25.78;46.77
54994;BME280;40891;47.242;8.648;2022-07-15T08:08:47;96545.59;;;25.82;45.00
54994;BME280;40891;47.242;8.648;2022-07-15T08:11:13;96546.19;;;25.67;45.03
54994;BME280;40891;47.242;8.648;2022-07-15T08:13:39;96542.00;;;25.68;45.09
54994;BME280;40891;47.242;8.648;2022-07-15T08:16:05;96545.66;;;25.55;44.68
54994;BME280;40891;47.242;8.648;2022-07-15T08:18:32;96539.59;;;25.59;45.36
54994;BME280;40891;47.242;8.648;2022-07-15T08:20:57;96546.06;;;25.07;45.05
54994;BME280;40891;47.242;8.648;2022-07-15T08:23:23;96548.22;;;25.01;45.48
54994;BME280;40891;47.242;8.648;2022-07-15T08:25:50;96546.38;;;25.17;45.88
54994;BME280;40891;47.242;8.648;2022-07-15T08:28:16;96551.53;;;25.05;46.11
54994;BME280;40891;47.242;8.648;2022-07-15T08:30:43;96541.56;;;25.25;45.21
54994;BME280;40891;47.242;8.648;2022-07-15T08:33:08;96549.44;;;25.58;43.70
54994;BME280;40891;47.242;8.648;2022-07-15T08:35:34;96546.25;;;25.75;44.63
54994;BME280;40891;47.242;8.648;2022-07-15T08:38:03;96548.47;;;25.68;44.40
54994;BME280;40891;47.242;8.648;2022-07-15T08:40:30;96547.25;;;25.77;44.57
54994;BME280;40891;47.242;8.648;2022-07-15T08:42:56;96548.03;;;25.64;44.83
54994;BME280;40891;47.242;8.648;2022-07-15T08:45:22;96552.56;;;25.94;45.36
54994;BME280;40891;47.242;8.648;2022-07-15T08:47:47;96552.16;;;25.90;45.04
54994;BME280;40891;47.242;8.648;2022-07-15T08:50:16;96554.63;;;26.06;45.18
54994;BME280;40891;47.242;8.648;2022-07-15T08:52:43;96546.00;;;26.12;46.67
54994;BME280;40891;47.242;8.648;2022-07-15T08:55:09;96539.13;;;26.28;46.13
54994;BME280;40891;47.242;8.648;2022-07-15T08:57:35;96545.41;;;26.47;46.13
54994;BME280;40891;47.242;8.648;2022-07-15T09:00:02;96540.50;;;26.55;44.94
54994;BME280;40891;47.242;8.648;2022-07-15T09:02:27;96546.66;;;26.59;45.06
54994;BME280;40891;47.242;8.648;2022-07-15T09:05:15;96539.84;;;26.83;45.12
54994;BME280;40891;47.242;8.648;2022-07-15T09:10:24;96541.25;;;26.89;44.09
54994;BME280;40891;47.242;8.648;2022-07-15T09:12:53;96541.59;;;27.14;44.93
54994;BME280;40891;47.242;8.648;2022-07-15T09:15:37;96548.91;;;27.23;43.58
54994;BME280;40891;47.242;8.648;2022-07-15T09:20:32;96548.63;;;26.85;42.68
54994;BME280;40891;47.242;8.648;2022-07-15T09:22:57;96551.88;;;26.68;43.17
54994;BME280;40891;47.242;8.648;2022-07-15T09:25:23;96551.75;;;26.94;43.19
54994;BME280;40891;47.242;8.648;2022-07-15T09:27:49;96549.22;;;27.12;43.21
54994;BME280;40891;47.242;8.648;2022-07-15T09:30:26;96552.78;;;27.33;45.04
54994;BME280;40891;47.242;8.648;2022-07-15T09:33:19;96548.63;;;27.70;43.22
54994;BME280;40891;47.242;8.648;2022-07-15T09:38:51;96550.25;;;27.93;40.31
54994;BME280;40891;47.242;8.648;2022-07-15T09:41:43;96550.59;;;28.18;40.78
54994;BME280;40891;47.242;8.648;2022-07-15T09:44:23;96550.16;;;28.14;40.50
54994;BME280;40891;47.242;8.648;2022-07-15T09:46:58;96556.53;;;28.35;40.12
54994;BME280;40891;47.242;8.648;2022-07-15T09:52:09;96549.59;;;28.89;40.05
54994;BME280;40891;47.242;8.648;2022-07-15T09:54:48;96554.53;;;28.81;38.19
54994;BME280;40891;47.242;8.648;2022-07-15T09:57:16;96548.03;;;28.88;38.32
54994;BME280;40891;47.242;8.648;2022-07-15T09:59:44;96553.59;;;29.24;37.99
54994;BME280;40891;47.242;8.648;2022-07-15T10:02:10;96551.47;;;28.79;40.08
54994;BME280;40891;47.242;8.648;2022-07-15T10:04:37;96549.19;;;29.08;38.84
54994;BME280;40891;47.242;8.648;2022-07-15T10:07:04;96546.88;;;29.06;36.88
54994;BME280;40891;47.242;8.648;2022-07-15T10:09:32;96548.94;;;28.53;37.90
54994;BME280;40891;47.242;8.648;2022-07-15T10:12:04;96553.38;;;28.69;38.90
54994;BME280;40891;47.242;8.648;2022-07-15T10:17:35;96541.44;;;29.71;37.86
54994;BME280;40891;47.242;8.648;2022-07-15T10:28:52;96536.22;;;29.99;35.81
54994;BME280;40891;47.242;8.648;2022-07-15T10:31:29;96522.78;;;30.49;37.23
54994;BME280;40891;47.242;8.648;2022-07-15T10:37:00;96523.91;;;31.03;34.73
54994;BME280;40891;47.242;8.648;2022-07-15T10:39:28;96518.44;;;31.15;35.76
54994;BME280;40891;47.242;8.648;2022-07-15T10:42:03;96513.78;;;31.61;35.54
54994;BME280;40891;47.242;8.648;2022-07-15T10:44:31;96507.97;;;31.27;35.59
54994;BME280;40891;47.242;8.648;2022-07-15T10:49:45;96507.38;;;32.14;33.93
54994;BME280;40891;47.242;8.648;2022-07-15T10:52:31;96499.44;;;32.05;31.12
54994;BME280;40891;47.242;8.648;2022-07-15T11:00:31;96496.22;;;32.71;33.35
54994;BME280;40891;47.242;8.648;2022-07-15T11:03:17;96486.81;;;32.17;30.68
54994;BME280;40891;47.242;8.648;2022-07-15T11:13:42;96486.56;;;34.28;28.39
54994;BME280;40891;47.242;8.648;2022-07-15T11:16:10;96482.78;;;34.06;28.32
54994;BME280;40891;47.242;8.648;2022-07-15T11:21:15;96475.94;;;35.32;28.05
54994;BME280;40891;47.242;8.648;2022-07-15T11:23:44;96466.13;;;35.68;26.04
54994;BME280;40891;47.242;8.648;2022-07-15T11:26:10;96476.50;;;34.78;27.50
54994;BME280;40891;47.242;8.648;2022-07-15T11:28:36;96465.47;;;35.69;27.19
54994;BME280;40891;47.242;8.648;2022-07-15T11:31:01;96476.09;;;35.34;27.15
54994;BME280;40891;47.242;8.648;2022-07-15T11:33:27;96471.09;;;36.09;26.23
54994;BME280;40891;47.242;8.648;2022-07-15T11:35:59;96470.34;;;36.20;25.43
54994;BME280;40891;47.242;8.648;2022-07-15T11:38:28;96466.06;;;36.10;25.38
54994;BME280;40891;47.242;8.648;2022-07-15T11:40:56;96471.56;;;36.39;25.61
54994;BME280;40891;47.242;8.648;2022-07-15T11:43:41;96463.94;;;37.24;26.20
54994;BME280;40891;47.242;8.648;2022-07-15T11:46:27;96461.19;;;37.15;25.12
54994;BME280;40891;47.242;8.648;2022-07-15T11:48:54;96462.28;;;37.33;24.33
54994;BME280;40891;47.242;8.648;2022-07-15T11:51:28;96469.13;;;37.14;24.56
54994;BME280;40891;47.242;8.648;2022-07-15T11:53:55;96464.31;;;37.42;23.22
54994;BME280;40891;47.242;8.648;2022-07-15T11:56:21;96458.41;;;37.17;23.27
54994;BME280;40891;47.242;8.648;2022-07-15T11:58:51;96454.50;;;36.89;26.79
54994;BME280;40891;47.242;8.648;2022-07-15T12:01:21;96459.47;;;37.58;25.56
54994;BME280;40891;47.242;8.648;2022-07-15T12:03:52;96455.88;;;38.08;24.61
54994;BME280;40891;47.242;8.648;2022-07-15T12:06:21;96459.50;;;37.23;22.60
54994;BME280;40891;47.242;8.648;2022-07-15T12:08:49;96462.03;;;36.59;24.50
54994;BME280;40891;47.242;8.648;2022-07-15T12:13:58;96451.31;;;37.80;22.72
54994;BME280;40891;47.242;8.648;2022-07-15T12:18:55;96455.81;;;38.84;22.22
54994;BME280;40891;47.242;8.648;2022-07-15T12:21:21;96455.66;;;38.68;20.51
54994;BME280;40891;47.242;8.648;2022-07-15T12:26:28;96445.94;;;41.05;20.17
54994;BME280;40891;47.242;8.648;2022-07-15T12:28:59;96439.91;;;42.16;19.23
54994;BME280;40891;47.242;8.648;2022-07-15T12:31:31;96440.34;;;40.48;19.89
54994;BME280;40891;47.242;8.648;2022-07-15T12:33:57;96450.06;;;41.64;19.16
54994;BME280;40891;47.242;8.648;2022-07-15T12:36:24;96448.34;;;40.19;19.06
54994;BME280;40891;47.242;8.648;2022-07-15T12:41:32;96442.78;;;41.48;18.92
54994;BME280;40891;47.242;8.648;2022-07-15T12:44:00;96439.78;;;41.30;17.91
54994;BME280;40891;47.242;8.648;2022-07-15T12:49:50;96440.09;;;40.89;18.81
54994;BME280;40891;47.242;8.648;2022-07-15T12:52:37;96436.78;;;41.94;17.96
54994;BME280;40891;47.242;8.648;2022-07-15T12:55:18;96434.47;;;43.60;16.81
54994;BME280;40891;47.242;8.648;2022-07-15T12:57:45;96435.50;;;44.31;15.75
54994;BME280;40891;47.242;8.648;2022-07-15T13:00:15;96432.94;;;44.43;15.90
54994;BME280;40891;47.242;8.648;2022-07-15T13:05:19;96426.78;;;46.39;13.94
54994;BME280;40891;47.242;8.648;2022-07-15T13:07:46;96433.78;;;46.53;12.99
54994;BME280;40891;47.242;8.648;2022-07-15T13:10:11;96436.56;;;45.13;14.67
54994;BME280;40891;47.242;8.648;2022-07-15T13:12:38;96433.53;;;45.86;14.06
54994;BME280;40891;47.242;8.648;2022-07-15T13:15:03;96431.16;;;46.68;14.12
54994;BME280;40891;47.242;8.648;2022-07-15T13:17:29;96430.22;;;46.29;13.99
54994;BME280;40891;47.242;8.648;2022-07-15T13:19:54;96427.47;;;46.08;14.08
54994;BME280;40891;47.242;8.648;2022-07-15T13:22:19;96424.38;;;46.31;13.67
54994;BME280;40891;47.242;8.648;2022-07-15T13:24:45;96430.81;;;46.53;13.02
54994;BME280;40891;47.242;8.648;2022-07-15T13:27:10;96424.69;;;46.43;13.62
54994;BME280;40891;47.242;8.648;2022-07-15T13:29:35;96421.66;;;47.76;13.66
54994;BME280;40891;47.242;8.648;2022-07-15T13:32:01;96425.88;;;48.95;12.24
54994;BME280;40891;47.242;8.648;2022-07-15T13:34:26;96428.25;;;49.08;12.84
54994;BME280;40891;47.242;8.648;2022-07-15T13:36:51;96421.84;;;47.11;13.08
54994;BME280;40891;47.242;8.648;2022-07-15T13:39:17;96425.88;;;45.49;14.82
54994;BME280;40891;47.242;8.648;2022-07-15T13:41:42;96424.41;;;43.65;15.34
54994;BME280;40891;47.242;8.648;2022-07-15T13:44:08;96415.59;;;43.84;15.53
54994;BME280;40891;47.242;8.648;2022-07-15T13:46:33;96419.63;;;43.14;15.91
54994;BME280;40891;47.242;8.648;2022-07-15T13:48:58;96411.78;;;43.60;16.19
54994;BME280;40891;47.242;8.648;2022-07-15T13:51:24;96411.31;;;42.50;16.87
54994;BME280;40891;47.242;8.648;2022-07-15T13:53:51;96412.56;;;41.41;19.12
54994;BME280;40891;47.242;8.648;2022-07-15T13:56:18;96414.41;;;39.53;18.37
54994;BME280;40891;47.242;8.648;2022-07-15T13:58:43;96418.25;;;40.14;17.80
54994;BME280;40891;47.242;8.648;2022-07-15T14:01:09;96413.28;;;41.42;17.07